Ora Direzione Vento Velocita' Vento Media Vento Raffica Max. Temperatura Wind Chill Pioggia Pressione
19:58:26.0280 °(W)10.5 Kts9.5 Kts14.8 Kts27.4 °C27.4 °C0.0 mm1013.9 Hpa
19:38:20.0269 °(W)8.7 Kts8.7 Kts14.8 Kts27.5 °C27.5 °C0.0 mm1013.8 Hpa
19:17:48.0275 °(W)11.3 Kts10.5 Kts14.8 Kts27.5 °C27.5 °C0.0 mm1013.8 Hpa
18:57:40.0279 °(W)9.5 Kts8.7 Kts14.8 Kts27.6 °C27.6 °C0.0 mm1013.9 Hpa
18:37:20.0278 °(W)9.5 Kts9.5 Kts14.8 Kts27.8 °C27.8 °C0.0 mm1014.0 Hpa
18:18:09.0274 °(W)10.5 Kts9.5 Kts14.8 Kts27.9 °C27.9 °C0.0 mm1014.1 Hpa
17:57:26.0275 °(W)10.5 Kts10.5 Kts14.8 Kts28.1 °C28.1 °C0.0 mm1014.1 Hpa
17:37:10.0275 °(W)10.5 Kts11.3 Kts14.8 Kts28.6 °C28.6 °C0.0 mm1014.1 Hpa
17:16:59.0261 °(W)9.5 Kts10.5 Kts14.8 Kts28.7 °C28.7 °C0.0 mm1014.1 Hpa
16:56:43.0278 °(W)12.2 Kts10.5 Kts14.8 Kts28.7 °C28.7 °C0.0 mm1014.2 Hpa
16:38:20.0269 °(W)12.2 Kts10.5 Kts14.8 Kts28.7 °C28.7 °C0.0 mm1014.3 Hpa
16:18:00.0271 °(W)12.2 Kts11.3 Kts14.8 Kts28.6 °C28.6 °C0.0 mm1014.3 Hpa
15:57:18.0262 °(W)9.5 Kts11.3 Kts14.0 Kts28.5 °C28.5 °C0.0 mm1014.5 Hpa
15:37:07.0276 °(W)12.2 Kts10.5 Kts14.0 Kts28.6 °C28.6 °C0.0 mm1014.6 Hpa
15:18:15.0266 °(W)10.5 Kts12.2 Kts14.0 Kts28.2 °C28.2 °C0.0 mm1014.8 Hpa
14:57:52.0272 °(W)13.0 Kts9.5 Kts14.0 Kts28.6 °C28.6 °C0.0 mm1015.0 Hpa
14:37:41.0271 °(W)8.7 Kts9.5 Kts14.0 Kts29.0 °C29.0 °C0.0 mm1015.0 Hpa
14:17:19.0267 °(W)9.5 Kts11.3 Kts14.0 Kts28.7 °C28.7 °C0.0 mm1015.1 Hpa
13:58:23.0280 °(W)12.2 Kts10.5 Kts13.0 Kts28.7 °C28.7 °C0.0 mm1015.1 Hpa
13:38:07.0275 °(W)10.5 Kts10.5 Kts13.0 Kts28.5 °C28.5 °C0.0 mm1015.2 Hpa